sensor_id;sensor_type;location;lat;lon;timestamp;noise_LAeq;noise_LA_min;noise_LA_max;noise_LA01;noise_LA95
81493;Laerm;70900;51.798;10.954;2023-09-30T00:01:08;40.97;33.78;46.95;;
81493;Laerm;70900;51.798;10.954;2023-09-30T00:03:33;38.88;32.44;52.45;;
81493;Laerm;70900;51.798;10.954;2023-09-30T00:05:59;38.55;32.71;45.63;;
81493;Laerm;70900;51.798;10.954;2023-09-30T00:08:24;42.77;32.72;48.48;;
81493;Laerm;70900;51.798;10.954;2023-09-30T00:10:50;40.08;32.54;46.90;;
81493;Laerm;70900;51.798;10.954;2023-09-30T00:13:15;37.65;32.09;45.77;;
81493;Laerm;70900;51.798;10.954;2023-09-30T00:15:41;38.57;33.61;46.82;;
81493;Laerm;70900;51.798;10.954;2023-09-30T00:18:06;39.50;34.53;47.53;;
81493;Laerm;70900;51.798;10.954;2023-09-30T00:20:32;38.37;34.08;44.60;;
81493;Laerm;70900;51.798;10.954;2023-09-30T00:22:57;36.10;31.92;41.59;;
81493;Laerm;70900;51.798;10.954;2023-09-30T00:25:23;36.90;31.33;41.50;;
81493;Laerm;70900;51.798;10.954;2023-09-30T00:27:48;36.94;31.47;43.06;;
81493;Laerm;70900;51.798;10.954;2023-09-30T00:30:14;36.45;31.50;43.68;;
81493;Laerm;70900;51.798;10.954;2023-09-30T00:32:39;41.15;32.36;50.37;;
81493;Laerm;70900;51.798;10.954;2023-09-30T00:35:05;37.76;32.93;45.81;;
81493;Laerm;70900;51.798;10.954;2023-09-30T00:37:37;38.14;34.02;45.93;;
81493;Laerm;70900;51.798;10.954;2023-09-30T00:40:02;35.44;31.16;45.44;;
81493;Laerm;70900;51.798;10.954;2023-09-30T00:42:28;34.96;31.33;39.36;;
81493;Laerm;70900;51.798;10.954;2023-09-30T00:44:54;39.59;31.99;52.83;;
81493;Laerm;70900;51.798;10.954;2023-09-30T00:47:19;38.38;33.01;45.09;;
81493;Laerm;70900;51.798;10.954;2023-09-30T00:49:46;48.14;31.22;62.56;;
81493;Laerm;70900;51.798;10.954;2023-09-30T00:52:11;35.35;30.75;42.47;;
81493;Laerm;70900;51.798;10.954;2023-09-30T00:54:37;35.16;31.51;39.42;;
81493;Laerm;70900;51.798;10.954;2023-09-30T00:57:04;33.07;28.87;40.31;;
81493;Laerm;70900;51.798;10.954;2023-09-30T00:59:30;34.24;29.44;41.12;;
81493;Laerm;70900;51.798;10.954;2023-09-30T01:01:57;30.30;26.28;41.06;;
81493;Laerm;70900;51.798;10.954;2023-09-30T01:04:24;36.55;28.95;49.90;;
81493;Laerm;70900;51.798;10.954;2023-09-30T01:06:51;33.11;28.85;46.69;;
81493;Laerm;70900;51.798;10.954;2023-09-30T01:09:16;30.43;27.05;45.98;;
81493;Laerm;70900;51.798;10.954;2023-09-30T01:11:41;34.16;29.85;41.26;;
81493;Laerm;70900;51.798;10.954;2023-09-30T01:14:23;34.95;31.35;44.52;;
81493;Laerm;70900;51.798;10.954;2023-09-30T01:16:48;30.84;26.99;37.24;;
81493;Laerm;70900;51.798;10.954;2023-09-30T01:19:14;36.25;27.01;55.85;;
81493;Laerm;70900;51.798;10.954;2023-09-30T01:21:39;32.66;29.73;38.03;;
81493;Laerm;70900;51.798;10.954;2023-09-30T01:24:04;32.57;29.23;38.49;;
81493;Laerm;70900;51.798;10.954;2023-09-30T01:26:30;32.71;27.98;40.09;;
81493;Laerm;70900;51.798;10.954;2023-09-30T01:28:55;49.57;29.34;76.24;;
81493;Laerm;70900;51.798;10.954;2023-09-30T01:31:20;34.30;30.19;52.71;;
81493;Laerm;70900;51.798;10.954;2023-09-30T01:33:46;33.05;29.08;43.89;;
81493;Laerm;70900;51.798;10.954;2023-09-30T01:36:11;32.45;28.03;39.90;;
81493;Laerm;70900;51.798;10.954;2023-09-30T01:38:36;31.78;28.19;46.00;;
81493;Laerm;70900;51.798;10.954;2023-09-30T01:41:02;38.25;30.99;53.74;;
81493;Laerm;70900;51.798;10.954;2023-09-30T01:43:27;38.86;35.10;48.04;;
81493;Laerm;70900;51.798;10.954;2023-09-30T01:45:53;36.43;33.06;52.98;;
81493;Laerm;70900;51.798;10.954;2023-09-30T01:48:18;33.39;28.96;46.24;;
81493;Laerm;70900;51.798;10.954;2023-09-30T01:50:44;53.62;30.18;72.35;;
81493;Laerm;70900;51.798;10.954;2023-09-30T01:53:09;33.29;29.66;42.14;;
81493;Laerm;70900;51.798;10.954;2023-09-30T01:55:37;34.99;30.06;41.33;;
81493;Laerm;70900;51.798;10.954;2023-09-30T01:58:02;32.41;29.17;37.48;;
81493;Laerm;70900;51.798;10.954;2023-09-30T02:00:28;32.93;28.19;38.85;;
81493;Laerm;70900;51.798;10.954;2023-09-30T02:02:54;32.57;28.33;39.60;;
81493;Laerm;70900;51.798;10.954;2023-09-30T02:05:19;34.48;28.90;47.28;;
81493;Laerm;70900;51.798;10.954;2023-09-30T02:07:45;34.27;30.54;40.10;;
81493;Laerm;70900;51.798;10.954;2023-09-30T02:10:10;33.70;30.03;39.08;;
81493;Laerm;70900;51.798;10.954;2023-09-30T02:12:36;36.62;31.70;40.96;;
81493;Laerm;70900;51.798;10.954;2023-09-30T02:15:02;32.14;27.64;38.56;;
81493;Laerm;70900;51.798;10.954;2023-09-30T02:17:28;29.88;26.66;35.69;;
81493;Laerm;70900;51.798;10.954;2023-09-30T02:19:53;33.13;30.32;38.60;;
81493;Laerm;70900;51.798;10.954;2023-09-30T02:22:20;32.89;27.72;43.52;;
81493;Laerm;70900;51.798;10.954;2023-09-30T02:24:45;34.33;30.22;38.89;;
81493;Laerm;70900;51.798;10.954;2023-09-30T02:27:10;32.16;29.05;39.70;;
81493;Laerm;70900;51.798;10.954;2023-09-30T02:29:36;32.28;27.40;42.09;;
81493;Laerm;70900;51.798;10.954;2023-09-30T02:32:01;33.59;27.44;38.42;;
81493;Laerm;70900;51.798;10.954;2023-09-30T02:34:26;31.48;28.41;41.07;;
81493;Laerm;70900;51.798;10.954;2023-09-30T02:36:53;30.96;27.15;38.73;;
81493;Laerm;70900;51.798;10.954;2023-09-30T02:39:20;33.12;27.49;46.23;;
81493;Laerm;70900;51.798;10.954;2023-09-30T02:41:45;33.81;27.74;56.08;;
81493;Laerm;70900;51.798;10.954;2023-09-30T02:44:11;34.15;28.25;41.51;;
81493;Laerm;70900;51.798;10.954;2023-09-30T02:46:37;29.83;26.50;34.14;;
81493;Laerm;70900;51.798;10.954;2023-09-30T02:49:03;52.47;26.48;69.10;;
81493;Laerm;70900;51.798;10.954;2023-09-30T02:51:28;30.77;28.40;34.37;;
81493;Laerm;70900;51.798;10.954;2023-09-30T02:53:54;33.54;28.61;37.19;;
81493;Laerm;70900;51.798;10.954;2023-09-30T02:56:20;32.04;28.25;37.86;;
81493;Laerm;70900;51.798;10.954;2023-09-30T02:58:46;31.92;28.37;35.83;;
81493;Laerm;70900;51.798;10.954;2023-09-30T03:01:14;33.33;29.30;39.90;;
81493;Laerm;70900;51.798;10.954;2023-09-30T03:03:42;33.26;29.05;39.41;;
81493;Laerm;70900;51.798;10.954;2023-09-30T03:06:09;32.98;28.31;37.47;;
81493;Laerm;70900;51.798;10.954;2023-09-30T03:08:35;33.19;30.19;38.68;;
81493;Laerm;70900;51.798;10.954;2023-09-30T03:11:01;31.10;27.66;38.30;;
81493;Laerm;70900;51.798;10.954;2023-09-30T03:13:27;32.26;29.39;40.09;;
81493;Laerm;70900;51.798;10.954;2023-09-30T03:15:52;45.32;29.61;60.00;;
81493;Laerm;70900;51.798;10.954;2023-09-30T03:18:17;47.43;29.44;61.49;;
81493;Laerm;70900;51.798;10.954;2023-09-30T03:20:43;33.46;28.34;53.29;;
81493;Laerm;70900;51.798;10.954;2023-09-30T03:23:08;31.49;28.35;42.88;;
81493;Laerm;70900;51.798;10.954;2023-09-30T03:25:34;32.22;29.20;39.43;;
81493;Laerm;70900;51.798;10.954;2023-09-30T03:27:59;33.40;29.80;41.29;;
81493;Laerm;70900;51.798;10.954;2023-09-30T03:30:24;32.85;29.91;43.65;;
81493;Laerm;70900;51.798;10.954;2023-09-30T03:32:50;49.50;28.14;65.82;;
81493;Laerm;70900;51.798;10.954;2023-09-30T03:35:15;45.62;29.97;61.04;;
81493;Laerm;70900;51.798;10.954;2023-09-30T03:37:43;34.39;28.90;47.70;;
81493;Laerm;70900;51.798;10.954;2023-09-30T03:40:10;33.98;30.00;42.86;;
81493;Laerm;70900;51.798;10.954;2023-09-30T03:42:42;34.96;29.73;47.85;;
81493;Laerm;70900;51.798;10.954;2023-09-30T03:45:08;33.36;28.97;40.29;;
81493;Laerm;70900;51.798;10.954;2023-09-30T03:47:34;36.45;29.74;50.14;;
81493;Laerm;70900;51.798;10.954;2023-09-30T03:49:59;35.11;29.92;47.62;;
81493;Laerm;70900;51.798;10.954;2023-09-30T03:52:25;33.62;29.79;39.87;;
81493;Laerm;70900;51.798;10.954;2023-09-30T03:54:51;34.52;30.29;50.03;;
81493;Laerm;70900;51.798;10.954;2023-09-30T03:57:17;45.19;29.89;63.17;;
81493;Laerm;70900;51.798;10.954;2023-09-30T03:59:43;46.97;30.12;64.44;;
81493;Laerm;70900;51.798;10.954;2023-09-30T04:02:11;38.27;30.53;51.30;;
81493;Laerm;70900;51.798;10.954;2023-09-30T04:04:36;54.06;29.65;71.24;;
81493;Laerm;70900;51.798;10.954;2023-09-30T04:07:02;45.24;30.12;61.77;;
81493;Laerm;70900;51.798;10.954;2023-09-30T04:09:30;33.63;30.37;46.94;;
81493;Laerm;70900;51.798;10.954;2023-09-30T04:11:57;42.90;29.76;58.26;;
81493;Laerm;70900;51.798;10.954;2023-09-30T04:14:22;50.68;30.14;66.53;;
81493;Laerm;70900;51.798;10.954;2023-09-30T04:16:47;33.93;30.79;50.19;;
81493;Laerm;70900;51.798;10.954;2023-09-30T04:19:13;33.42;29.41;41.74;;
81493;Laerm;70900;51.798;10.954;2023-09-30T04:21:39;33.30;30.53;39.61;;
81493;Laerm;70900;51.798;10.954;2023-09-30T04:24:04;33.82;31.24;41.16;;
81493;Laerm;70900;51.798;10.954;2023-09-30T04:26:30;52.01;31.74;65.35;;
81493;Laerm;70900;51.798;10.954;2023-09-30T04:28:55;34.93;30.30;44.28;;
81493;Laerm;70900;51.798;10.954;2023-09-30T04:31:20;33.40;30.41;40.78;;
81493;Laerm;70900;51.798;10.954;2023-09-30T04:33:49;53.52;32.91;70.72;;
81493;Laerm;70900;51.798;10.954;2023-09-30T04:36:16;35.84;31.51;44.54;;
81493;Laerm;70900;51.798;10.954;2023-09-30T04:38:41;53.67;32.10;69.41;;
81493;Laerm;70900;51.798;10.954;2023-09-30T04:41:08;34.41;30.49;50.91;;
81493;Laerm;70900;51.798;10.954;2023-09-30T04:43:34;34.48;31.11;44.99;;
81493;Laerm;70900;51.798;10.954;2023-09-30T04:45:59;36.11;31.61;42.27;;
81493;Laerm;70900;51.798;10.954;2023-09-30T04:48:24;33.86;30.84;44.19;;
81493;Laerm;70900;51.798;10.954;2023-09-30T04:50:50;36.13;30.37;47.64;;
81493;Laerm;70900;51.798;10.954;2023-09-30T04:53:17;37.81;30.50;58.64;;
81493;Laerm;70900;51.798;10.954;2023-09-30T04:55:43;44.42;30.73;60.14;;
81493;Laerm;70900;51.798;10.954;2023-09-30T04:58:08;47.23;31.15;62.65;;
81493;Laerm;70900;51.798;10.954;2023-09-30T05:00:34;52.03;31.00;68.55;;
81493;Laerm;70900;51.798;10.954;2023-09-30T05:03:00;38.35;30.50;50.28;;
81493;Laerm;70900;51.798;10.954;2023-09-30T05:05:26;39.94;31.76;55.77;;
81493;Laerm;70900;51.798;10.954;2023-09-30T05:07:51;51.78;33.23;64.78;;
81493;Laerm;70900;51.798;10.954;2023-09-30T05:10:16;48.62;32.39;64.50;;
81493;Laerm;70900;51.798;10.954;2023-09-30T05:12:45;36.33;32.38;46.69;;
81493;Laerm;70900;51.798;10.954;2023-09-30T05:15:10;50.58;31.56;68.97;;
81493;Laerm;70900;51.798;10.954;2023-09-30T05:17:36;51.02;33.76;62.60;;
81493;Laerm;70900;51.798;10.954;2023-09-30T05:20:01;55.75;32.33;72.08;;
81493;Laerm;70900;51.798;10.954;2023-09-30T05:22:32;54.49;29.66;69.61;;
81493;Laerm;70900;51.798;10.954;2023-09-30T05:24:57;51.81;31.87;65.38;;
81493;Laerm;70900;51.798;10.954;2023-09-30T05:27:23;53.82;32.62;71.90;;
81493;Laerm;70900;51.798;10.954;2023-09-30T05:29:48;38.59;31.39;52.88;;
81493;Laerm;70900;51.798;10.954;2023-09-30T05:32:14;53.98;34.49;68.85;;
81493;Laerm;70900;51.798;10.954;2023-09-30T05:34:39;50.22;33.24;64.84;;
81493;Laerm;70900;51.798;10.954;2023-09-30T05:37:05;51.98;33.22;62.65;;
81493;Laerm;70900;51.798;10.954;2023-09-30T05:39:30;38.25;31.84;53.67;;
81493;Laerm;70900;51.798;10.954;2023-09-30T05:41:57;51.68;32.48;66.21;;
81493;Laerm;70900;51.798;10.954;2023-09-30T05:44:22;35.54;32.21;46.97;;
81493;Laerm;70900;51.798;10.954;2023-09-30T05:46:47;36.62;30.15;46.39;;
81493;Laerm;70900;51.798;10.954;2023-09-30T05:49:13;53.26;31.96;68.03;;
81493;Laerm;70900;51.798;10.954;2023-09-30T05:51:41;49.68;32.43;67.56;;
81493;Laerm;70900;51.798;10.954;2023-09-30T05:54:07;51.23;31.29;66.50;;
81493;Laerm;70900;51.798;10.954;2023-09-30T05:56:35;57.96;32.31;71.10;;
81493;Laerm;70900;51.798;10.954;2023-09-30T05:59:00;55.54;34.69;69.02;;
81493;Laerm;70900;51.798;10.954;2023-09-30T06:01:26;52.95;33.30;68.92;;
81493;Laerm;70900;51.798;10.954;2023-09-30T06:03:52;56.13;33.82;72.15;;
81493;Laerm;70900;51.798;10.954;2023-09-30T06:06:18;57.58;36.24;69.80;;
81493;Laerm;70900;51.798;10.954;2023-09-30T06:08:43;51.54;34.16;68.96;;
81493;Laerm;70900;51.798;10.954;2023-09-30T06:11:17;54.11;34.80;76.71;;
81493;Laerm;70900;51.798;10.954;2023-09-30T06:13:42;54.60;35.08;65.94;;
81493;Laerm;70900;51.798;10.954;2023-09-30T06:16:08;58.41;34.28;72.37;;
81493;Laerm;70900;51.798;10.954;2023-09-30T06:18:36;62.67;35.56;72.28;;
81493;Laerm;70900;51.798;10.954;2023-09-30T06:21:01;57.44;38.98;70.25;;
81493;Laerm;70900;51.798;10.954;2023-09-30T06:23:27;50.88;34.17;64.20;;
81493;Laerm;70900;51.798;10.954;2023-09-30T06:25:55;56.96;35.49;68.98;;
81493;Laerm;70900;51.798;10.954;2023-09-30T06:28:21;42.54;33.66;60.53;;
81493;Laerm;70900;51.798;10.954;2023-09-30T06:30:51;48.33;34.37;61.85;;
81493;Laerm;70900;51.798;10.954;2023-09-30T06:33:16;56.55;33.84;76.05;;
81493;Laerm;70900;51.798;10.954;2023-09-30T06:35:42;49.70;34.45;63.68;;
81493;Laerm;70900;51.798;10.954;2023-09-30T06:38:15;55.32;35.04;67.82;;
81493;Laerm;70900;51.798;10.954;2023-09-30T06:40:41;56.91;37.99;70.80;;
81493;Laerm;70900;51.798;10.954;2023-09-30T06:43:07;59.81;36.48;72.03;;
81493;Laerm;70900;51.798;10.954;2023-09-30T06:45:34;53.74;35.58;67.29;;
81493;Laerm;70900;51.798;10.954;2023-09-30T06:47:59;58.38;38.03;71.66;;
81493;Laerm;70900;51.798;10.954;2023-09-30T06:50:24;56.37;35.27;68.68;;
81493;Laerm;70900;51.798;10.954;2023-09-30T06:52:50;51.09;36.28;64.42;;
81493;Laerm;70900;51.798;10.954;2023-09-30T06:55:15;55.99;38.94;67.22;;
81493;Laerm;70900;51.798;10.954;2023-09-30T06:57:44;57.26;37.93;71.42;;
81493;Laerm;70900;51.798;10.954;2023-09-30T07:00:10;58.68;36.23;69.60;;
81493;Laerm;70900;51.798;10.954;2023-09-30T07:02:36;58.48;36.38;72.34;;
81493;Laerm;70900;51.798;10.954;2023-09-30T07:05:05;56.98;38.72;69.05;;
81493;Laerm;70900;51.798;10.954;2023-09-30T07:07:31;56.96;36.59;68.61;;
81493;Laerm;70900;51.798;10.954;2023-09-30T07:09:57;56.29;35.53;67.25;;
81493;Laerm;70900;51.798;10.954;2023-09-30T07:12:22;57.51;38.18;69.52;;
81493;Laerm;70900;51.798;10.954;2023-09-30T07:14:48;54.34;34.75;69.42;;
81493;Laerm;70900;51.798;10.954;2023-09-30T07:17:13;63.94;38.81;72.87;;
81493;Laerm;70900;51.798;10.954;2023-09-30T07:19:39;69.22;55.12;87.85;;
81493;Laerm;70900;51.798;10.954;2023-09-30T07:22:04;52.48;37.28;66.72;;
81493;Laerm;70900;51.798;10.954;2023-09-30T07:24:30;54.00;36.77;67.33;;
81493;Laerm;70900;51.798;10.954;2023-09-30T07:26:55;54.76;42.81;66.61;;
81493;Laerm;70900;51.798;10.954;2023-09-30T07:29:20;52.70;38.62;67.00;;
81493;Laerm;70900;51.798;10.954;2023-09-30T07:31:46;57.64;38.58;68.24;;
81493;Laerm;70900;51.798;10.954;2023-09-30T07:34:12;58.58;37.96;74.87;;
81493;Laerm;70900;51.798;10.954;2023-09-30T07:36:40;52.45;38.59;69.27;;
81493;Laerm;70900;51.798;10.954;2023-09-30T07:39:06;61.49;39.01;74.73;;
81493;Laerm;70900;51.798;10.954;2023-09-30T07:41:34;54.19;36.40;65.45;;
81493;Laerm;70900;51.798;10.954;2023-09-30T07:44:01;56.33;35.82;69.82;;
81493;Laerm;70900;51.798;10.954;2023-09-30T07:46:29;53.85;37.29;75.04;;
81493;Laerm;70900;51.798;10.954;2023-09-30T07:48:55;53.00;36.11;67.48;;
81493;Laerm;70900;51.798;10.954;2023-09-30T07:51:22;57.59;37.59;68.95;;
81493;Laerm;70900;51.798;10.954;2023-09-30T07:53:47;55.38;38.13;66.70;;
81493;Laerm;70900;51.798;10.954;2023-09-30T07:56:13;58.12;37.84;69.57;;
81493;Laerm;70900;51.798;10.954;2023-09-30T07:58:39;57.44;38.34;67.44;;
81493;Laerm;70900;51.798;10.954;2023-09-30T08:01:04;52.36;36.50;64.34;;
81493;Laerm;70900;51.798;10.954;2023-09-30T08:03:30;53.79;39.36;62.89;;
81493;Laerm;70900;51.798;10.954;2023-09-30T08:05:56;55.42;38.25;69.30;;
81493;Laerm;70900;51.798;10.954;2023-09-30T08:08:22;55.93;38.55;68.50;;
81493;Laerm;70900;51.798;10.954;2023-09-30T08:10:49;55.93;37.96;66.51;;
81493;Laerm;70900;51.798;10.954;2023-09-30T08:13:14;55.15;36.34;68.21;;
81493;Laerm;70900;51.798;10.954;2023-09-30T08:15:40;51.82;36.04;71.89;;
81493;Laerm;70900;51.798;10.954;2023-09-30T08:18:06;51.87;39.13;64.65;;
81493;Laerm;70900;51.798;10.954;2023-09-30T08:20:33;53.25;39.42;63.59;;
81493;Laerm;70900;51.798;10.954;2023-09-30T08:22:59;45.93;36.89;59.72;;
81493;Laerm;70900;51.798;10.954;2023-09-30T08:25:24;56.24;38.01;70.68;;
81493;Laerm;70900;51.798;10.954;2023-09-30T08:27:50;57.38;38.01;72.41;;
81493;Laerm;70900;51.798;10.954;2023-09-30T08:30:15;51.67;38.81;67.57;;
81493;Laerm;70900;51.798;10.954;2023-09-30T08:32:41;57.26;39.97;69.30;;
81493;Laerm;70900;51.798;10.954;2023-09-30T08:35:06;57.15;40.65;71.09;;
81493;Laerm;70900;51.798;10.954;2023-09-30T08:37:32;59.49;38.77;77.09;;
81493;Laerm;70900;51.798;10.954;2023-09-30T08:39:58;51.25;38.01;63.26;;
81493;Laerm;70900;51.798;10.954;2023-09-30T08:42:23;53.09;37.69;64.18;;
81493;Laerm;70900;51.798;10.954;2023-09-30T08:44:56;54.13;36.37;70.09;;
81493;Laerm;70900;51.798;10.954;2023-09-30T08:47:21;60.05;37.51;69.84;;
81493;Laerm;70900;51.798;10.954;2023-09-30T08:49:49;56.06;39.05;65.66;;
81493;Laerm;70900;51.798;10.954;2023-09-30T08:52:20;57.14;38.45;68.95;;
81493;Laerm;70900;51.798;10.954;2023-09-30T08:54:45;57.14;39.70;72.32;;
81493;Laerm;70900;51.798;10.954;2023-09-30T08:57:11;54.69;37.02;68.11;;
81493;Laerm;70900;51.798;10.954;2023-09-30T08:59:37;57.14;37.27;70.10;;
81493;Laerm;70900;51.798;10.954;2023-09-30T09:02:09;57.27;37.19;68.41;;
81493;Laerm;70900;51.798;10.954;2023-09-30T09:04:35;57.92;39.11;68.31;;
81493;Laerm;70900;51.798;10.954;2023-09-30T09:07:01;51.29;38.87;65.63;;
81493;Laerm;70900;51.798;10.954;2023-09-30T09:09:26;49.37;38.65;65.56;;
81493;Laerm;70900;51.798;10.954;2023-09-30T09:11:51;52.64;37.40;67.55;;
81493;Laerm;70900;51.798;10.954;2023-09-30T09:14:17;57.55;40.23;69.25;;
81493;Laerm;70900;51.798;10.954;2023-09-30T09:16:51;56.77;37.40;66.19;;
81493;Laerm;70900;51.798;10.954;2023-09-30T09:19:17;52.18;38.63;66.57;;
81493;Laerm;70900;51.798;10.954;2023-09-30T09:21:58;55.24;39.14;68.24;;
81493;Laerm;70900;51.798;10.954;2023-09-30T09:26:52;51.38;38.51;65.88;;
81493;Laerm;70900;51.798;10.954;2023-09-30T09:29:28;58.00;39.73;70.18;;
81493;Laerm;70900;51.798;10.954;2023-09-30T09:31:53;51.16;38.15;64.53;;
81493;Laerm;70900;51.798;10.954;2023-09-30T09:34:31;57.71;40.03;71.51;;
81493;Laerm;70900;51.798;10.954;2023-09-30T09:36:56;55.73;37.41;70.13;;
81493;Laerm;70900;51.798;10.954;2023-09-30T09:39:30;47.90;38.74;63.06;;
81493;Laerm;70900;51.798;10.954;2023-09-30T09:41:56;55.74;38.28;69.87;;
81493;Laerm;70900;51.798;10.954;2023-09-30T09:44:23;48.94;38.01;63.18;;
81493;Laerm;70900;51.798;10.954;2023-09-30T09:46:48;55.43;39.05;66.22;;
81493;Laerm;70900;51.798;10.954;2023-09-30T09:49:18;52.04;37.37;67.10;;
81493;Laerm;70900;51.798;10.954;2023-09-30T09:51:44;52.96;36.18;68.95;;
81493;Laerm;70900;51.798;10.954;2023-09-30T09:54:11;57.59;37.88;69.49;;
81493;Laerm;70900;51.798;10.954;2023-09-30T09:56:36;55.93;39.95;70.77;;
81493;Laerm;70900;51.798;10.954;2023-09-30T09:59:03;55.92;37.38;68.34;;
81493;Laerm;70900;51.798;10.954;2023-09-30T10:01:30;48.60;36.73;66.24;;
81493;Laerm;70900;51.798;10.954;2023-09-30T10:03:56;52.64;38.79;67.73;;
81493;Laerm;70900;51.798;10.954;2023-09-30T10:06:21;49.55;37.65;63.80;;
81493;Laerm;70900;51.798;10.954;2023-09-30T10:08:48;55.86;40.45;66.37;;
81493;Laerm;70900;51.798;10.954;2023-09-30T10:11:19;55.33;38.87;66.97;;
81493;Laerm;70900;51.798;10.954;2023-09-30T10:13:53;49.59;38.65;69.96;;
81493;Laerm;70900;51.798;10.954;2023-09-30T10:19:21;54.14;37.55;65.02;;
81493;Laerm;70900;51.798;10.954;2023-09-30T10:24:34;56.08;37.39;70.30;;
81493;Laerm;70900;51.798;10.954;2023-09-30T10:35:13;49.19;38.01;63.77;;
81493;Laerm;70900;51.798;10.954;2023-09-30T10:37:40;57.52;36.91;73.76;;
81493;Laerm;70900;51.798;10.954;2023-09-30T10:40:05;49.03;36.03;64.79;;
81493;Laerm;70900;51.798;10.954;2023-09-30T10:50:51;54.83;41.27;67.04;;
81493;Laerm;70900;51.798;10.954;2023-09-30T10:53:20;54.79;38.98;68.87;;
81493;Laerm;70900;51.798;10.954;2023-09-30T10:55:45;54.95;39.14;68.79;;
81493;Laerm;70900;51.798;10.954;2023-09-30T10:58:14;52.24;37.87;66.51;;
81493;Laerm;70900;51.798;10.954;2023-09-30T11:00:51;54.11;37.37;65.75;;
81493;Laerm;70900;51.798;10.954;2023-09-30T11:03:19;50.53;36.74;64.99;;
81493;Laerm;70900;51.798;10.954;2023-09-30T11:05:47;57.25;35.31;75.54;;
81493;Laerm;70900;51.798;10.954;2023-09-30T11:08:12;38.91;36.14;50.68;;
81493;Laerm;70900;51.798;10.954;2023-09-30T11:10:46;56.10;37.15;67.79;;
81493;Laerm;70900;51.798;10.954;2023-09-30T11:13:13;51.88;38.49;63.82;;
81493;Laerm;70900;51.798;10.954;2023-09-30T11:15:39;48.78;38.54;63.19;;
81493;Laerm;70900;51.798;10.954;2023-09-30T11:18:14;49.21;37.99;63.45;;
81493;Laerm;70900;51.798;10.954;2023-09-30T11:20:40;58.43;42.10;71.00;;
81493;Laerm;70900;51.798;10.954;2023-09-30T11:23:05;52.61;38.55;64.46;;
81493;Laerm;70900;51.798;10.954;2023-09-30T11:25:34;43.42;38.51;63.35;;
81493;Laerm;70900;51.798;10.954;2023-09-30T11:28:18;51.41;38.19;65.51;;
81493;Laerm;70900;51.798;10.954;2023-09-30T11:30:58;54.29;37.74;67.47;;
81493;Laerm;70900;51.798;10.954;2023-09-30T11:33:24;56.97;40.60;69.35;;
81493;Laerm;70900;51.798;10.954;2023-09-30T11:36:03;58.46;42.02;74.46;;
81493;Laerm;70900;51.798;10.954;2023-09-30T11:38:30;49.77;40.62;61.38;;
81493;Laerm;70900;51.798;10.954;2023-09-30T11:41:03;52.37;39.13;64.08;;
81493;Laerm;70900;51.798;10.954;2023-09-30T11:43:32;45.30;38.56;59.59;;
81493;Laerm;70900;51.798;10.954;2023-09-30T11:46:10;55.19;42.72;69.58;;
81493;Laerm;70900;51.798;10.954;2023-09-30T11:48:36;54.33;40.76;65.22;;
81493;Laerm;70900;51.798;10.954;2023-09-30T11:51:02;51.44;39.95;62.43;;
81493;Laerm;70900;51.798;10.954;2023-09-30T11:53:31;52.57;42.00;67.96;;
81493;Laerm;70900;51.798;10.954;2023-09-30T11:56:00;51.68;41.88;61.90;;
81493;Laerm;70900;51.798;10.954;2023-09-30T11:58:28;54.96;45.09;64.49;;
81493;Laerm;70900;51.798;10.954;2023-09-30T12:00:54;57.42;42.36;69.89;;
81493;Laerm;70900;51.798;10.954;2023-09-30T12:03:19;54.27;40.89;68.09;;
81493;Laerm;70900;51.798;10.954;2023-09-30T12:05:45;50.20;40.58;64.52;;
81493;Laerm;70900;51.798;10.954;2023-09-30T12:08:11;54.73;38.70;66.23;;
81493;Laerm;70900;51.798;10.954;2023-09-30T12:10:36;55.47;40.77;70.95;;
81493;Laerm;70900;51.798;10.954;2023-09-30T12:13:02;53.89;39.60;68.57;;
81493;Laerm;70900;51.798;10.954;2023-09-30T12:15:27;54.84;40.11;68.58;;
81493;Laerm;70900;51.798;10.954;2023-09-30T12:17:53;56.15;39.30;71.17;;
81493;Laerm;70900;51.798;10.954;2023-09-30T12:20:18;54.93;38.58;69.51;;
81493;Laerm;70900;51.798;10.954;2023-09-30T12:22:44;59.41;40.92;73.71;;
81493;Laerm;70900;51.798;10.954;2023-09-30T12:25:10;54.90;42.28;68.32;;
81493;Laerm;70900;51.798;10.954;2023-09-30T12:27:35;50.72;40.62;67.18;;
81493;Laerm;70900;51.798;10.954;2023-09-30T12:30:00;51.92;41.15;67.36;;
81493;Laerm;70900;51.798;10.954;2023-09-30T12:32:26;55.53;39.16;72.68;;
81493;Laerm;70900;51.798;10.954;2023-09-30T12:34:52;56.76;38.72;72.93;;
81493;Laerm;70900;51.798;10.954;2023-09-30T12:37:18;52.23;38.11;68.18;;
81493;Laerm;70900;51.798;10.954;2023-09-30T12:39:43;52.12;38.63;67.19;;
81493;Laerm;70900;51.798;10.954;2023-09-30T12:42:12;52.73;39.71;66.46;;
81493;Laerm;70900;51.798;10.954;2023-09-30T12:44:38;54.53;40.03;69.72;;
81493;Laerm;70900;51.798;10.954;2023-09-30T12:47:04;52.54;39.84;70.86;;
81493;Laerm;70900;51.798;10.954;2023-09-30T12:49:30;54.17;40.83;65.41;;
81493;Laerm;70900;51.798;10.954;2023-09-30T12:51:56;51.39;39.68;66.29;;
81493;Laerm;70900;51.798;10.954;2023-09-30T12:54:23;50.14;39.15;62.22;;
81493;Laerm;70900;51.798;10.954;2023-09-30T12:56:48;54.16;38.98;65.99;;
81493;Laerm;70900;51.798;10.954;2023-09-30T12:59:15;49.65;40.09;59.29;;
81493;Laerm;70900;51.798;10.954;2023-09-30T13:01:41;51.68;39.39;66.26;;
81493;Laerm;70900;51.798;10.954;2023-09-30T13:04:06;54.99;38.76;68.95;;
81493;Laerm;70900;51.798;10.954;2023-09-30T13:06:33;55.36;39.64;67.86;;
81493;Laerm;70900;51.798;10.954;2023-09-30T13:09:01;59.28;40.75;70.60;;
81493;Laerm;70900;51.798;10.954;2023-09-30T13:11:28;54.82;36.27;70.39;;
81493;Laerm;70900;51.798;10.954;2023-09-30T13:13:54;54.64;37.92;67.49;;
81493;Laerm;70900;51.798;10.954;2023-09-30T13:16:20;52.90;38.11;70.84;;
81493;Laerm;70900;51.798;10.954;2023-09-30T13:18:47;54.62;39.56;69.46;;
81493;Laerm;70900;51.798;10.954;2023-09-30T13:21:16;60.06;40.69;70.23;;
81493;Laerm;70900;51.798;10.954;2023-09-30T13:23:41;52.04;40.31;66.26;;
81493;Laerm;70900;51.798;10.954;2023-09-30T13:26:07;55.38;37.23;69.68;;
81493;Laerm;70900;51.798;10.954;2023-09-30T13:28:33;52.70;37.27;66.67;;
81493;Laerm;70900;51.798;10.954;2023-09-30T13:30:58;53.89;39.93;67.41;;
81493;Laerm;70900;51.798;10.954;2023-09-30T13:33:24;53.79;39.36;65.79;;
81493;Laerm;70900;51.798;10.954;2023-09-30T13:35:49;60.02;38.23;76.37;;
81493;Laerm;70900;51.798;10.954;2023-09-30T13:38:15;53.54;38.45;68.91;;
81493;Laerm;70900;51.798;10.954;2023-09-30T13:40:41;56.38;41.49;67.20;;
81493;Laerm;70900;51.798;10.954;2023-09-30T13:43:06;59.72;39.09;78.61;;
81493;Laerm;70900;51.798;10.954;2023-09-30T13:45:32;58.87;39.82;72.21;;
81493;Laerm;70900;51.798;10.954;2023-09-30T13:47:57;51.11;37.84;67.88;;
81493;Laerm;70900;51.798;10.954;2023-09-30T13:50:23;54.45;38.12;68.25;;
81493;Laerm;70900;51.798;10.954;2023-09-30T13:52:48;55.92;39.28;71.83;;